Latest Weather Observations for Rowley Shoals

IDW60801

Issued at 4:35 pm WST Saturday 29 November 2014 (issued every 30 minutes, with the page automatically refreshed every 10 minutes)

About weather observations | Map of weather stations | Latest weather observations for WA | Other Formats
Station Details ID: 200713 Name: ROWLEY SHOALS Lat: -17.52 Lon: 118.95 Height: 0.0 m
Data from the previous 72 hours. | See also: Recent months for locations in Western Australia
Date/Time
WST
Temp
°C
App
Temp
°C
Dew
Point
Rel
Hum
%
Delta-T
°C
Wind Press
QNH
hPa
Press
MSL
hPa
Rain
since 9 am
mm
Dir
 
Spd
km/h
Gust
km/h
Spd
kts
Gust
kts
29/04:30pm - - - - - WSW 24 28 13 15 1005.9 - -
29/04:00pm - - - - - WSW 22 28 12 15 1006.0 1005.8 -
29/03:30pm - - - - - WSW 24 26 13 14 1006.1 - -
29/03:00pm - - - - - WSW 22 24 12 13 1006.3 1006.2 -
29/02:30pm - - - - - WSW 17 20 9 11 1006.6 - -
29/02:00pm - - - - - WSW 20 22 11 12 1006.9 1006.7 -
29/01:30pm - - - - - SW 19 20 10 11 1007.3 - -
29/01:00pm - - - - - WSW 22 26 12 14 1007.4 1007.4 -
29/12:30pm - - - - - WSW 24 28 13 15 1007.4 - -
29/12:00pm - - - - - WSW 22 24 12 13 1007.6 1007.5 -
29/11:30am - - - - - WSW 20 22 11 12 1008.1 - -
29/11:00am - - - - - WSW 20 20 11 11 1008.4 1008.1 -
29/10:30am - - - - - WSW 17 20 9 11 1008.8 - -
29/10:00am - - - - - SW 15 17 8 9 1009.0 1008.8 -
29/09:30am - - - - - SW 17 20 9 11 1009.3 - -
29/09:00am - - - - - SW 17 20 9 11 1009.4 1009.3 -
29/08:30am - - - - - SSW 17 20 9 11 1009.2 - -
29/08:00am - - - - - SSW 17 19 9 10 1009.0 1008.9 -
29/07:30am - - - - - SSW 17 19 9 10 1009.0 - -
29/07:00am - - - - - SSW 19 22 10 12 1008.6 1008.6 -
29/06:30am - - - - - SSW 20 24 11 13 1008.4 - -
29/06:00am - - - - - S 20 26 11 14 1008.3 1008.3 -
29/05:30am - - - - - SSW 20 24 11 13 1007.8 - -
29/05:00am - - - - - SW 20 24 11 13 1007.9 1007.7 -
29/04:30am - - - - - SSW 22 26 12 14 1007.6 - -
29/04:00am - - - - - SW 24 28 13 15 1007.4 1007.2 -
29/03:30am - - - - - SSW 26 30 14 16 1007.3 - -
29/03:00am - - - - - SSW 24 28 13 15 1007.3 1007.2 -
29/02:30am - - - - - SSW 32 35 17 19 1007.5 - -
29/02:00am - - - - - SW 30 33 16 18 1007.0 1007.0 -
29/01:30am - - - - - SW 30 32 16 17 1007.1 - -
29/01:00am - - - - - SW 26 30 14 16 1007.2 1007.2 -
29/12:30am - - - - - SW 28 32 15 17 1007.2 - -
29/12:00am - - - - - SW 30 35 16 19 1007.6 1007.4 -
 
Date/Time
WST
Temp
°C
App
Temp
°C
Dew
Point
Rel
Hum
%
Delta-T
°C
Wind Press
QNH
hPa
Press
MSL
hPa
Rain
since 9 am
mm
Dir
 
Spd
km/h
Gust
km/h
Spd
kts
Gust
kts
28/11:30pm - - - - - SW 26 30 14 16 1008.2 - -
28/11:00pm - - - - - SW 26 30 14 16 1008.8 1008.4 -
28/10:30pm - - - - - SW 24 28 13 15 1009.1 - -
28/10:00pm - - - - - SW 24 28 13 15 1009.3 1009.1 -
28/09:30pm - - - - - SW 24 30 13 16 1009.3 - -
28/09:00pm - - - - - SW 26 30 14 16 1008.9 1008.9 -
28/08:30pm - - - - - SW 24 28 13 15 1008.9 - -
28/08:00pm - - - - - SW 22 28 12 15 1008.8 1008.8 -
28/07:30pm - - - - - SW 22 26 12 14 1008.7 - -
28/07:00pm - - - - - SW 20 24 11 13 1008.6 1008.5 -
28/06:30pm - - - - - SW 19 22 10 12 1008.4 - -
28/06:00pm - - - - - SW 19 20 10 11 1008.2 1008.2 -
28/05:30pm - - - - - SW 17 19 9 10 1008.1 - -
28/05:00pm - - - - - SW 15 17 8 9 1007.8 1007.8 -
28/04:30pm - - - - - SW 15 19 8 10 1007.7 - -
28/04:00pm - - - - - SW 17 19 9 10 1007.5 1007.4 -
28/03:30pm - - - - - WSW 13 15 7 8 1007.5 - -
28/03:00pm - - - - - SW 11 13 6 7 1007.5 1007.5 -
28/02:30pm - - - - - S 9 13 5 7 1007.8 - -
28/02:00pm - - - - - S 7 9 4 5 1007.9 1007.7 -
28/01:30pm - - - - - S 7 9 4 5 1008.2 - -
28/01:00pm - - - - - S 7 13 4 7 1008.4 1008.2 -
28/12:30pm - - - - - SSW 9 11 5 6 1008.8 - -
28/12:00pm - - - - - SSW 11 15 6 8 1009.1 1008.8 -
28/11:30am - - - - - S 9 11 5 6 1009.2 - -
28/11:00am - - - - - SSE 13 17 7 9 1009.6 1009.3 -
28/10:30am - - - - - S 15 20 8 11 1009.7 - -
28/10:00am - - - - - S 15 20 8 11 1010.0 1009.8 -
28/09:30am - - - - - SSE 22 28 12 15 1010.2 - -
28/09:00am - - - - - S 17 24 9 13 1010.3 1010.1 -
28/08:30am - - - - - SSE 19 22 10 12 1010.4 - -
28/08:00am - - - - - S 13 20 7 11 1010.2 1010.2 -
28/07:30am - - - - - SSE 19 20 10 11 1010.3 - -
28/07:00am - - - - - S 13 15 7 8 1010.1 1010.0 -
28/06:30am - - - - - S 17 22 9 12 1010.1 - -
28/06:00am - - - - - S 15 20 8 11 1009.8 1009.8 -
28/05:30am - - - - - S 22 26 12 14 1009.4 - -
28/05:00am - - - - - SSW 22 22 12 12 1009.1 1009.0 -
28/04:30am - - - - - SSW 20 22 11 12 1009.0 - -
28/04:00am - - - - - SW 22 26 12 14 1008.7 1008.6 -
28/03:30am - - - - - WSW 22 26 12 14 1008.3 - -
28/03:00am - - - - - WSW 22 28 12 15 1007.9 1008.0 -
28/02:30am - - - - - W 22 26 12 14 1007.7 - -
28/02:00am - - - - - WNW 20 26 11 14 1007.6 1007.6 -
28/01:30am - - - - - WNW 22 26 12 14 1007.4 - -
28/01:00am - - - - - WNW 20 24 11 13 1007.6 1007.4 -
28/12:30am - - - - - NW 19 20 10 11 1007.9 - -
28/12:00am - - - - - WNW 19 20 10 11 1008.0 1007.8 -
 
Date/Time
WST
Temp
°C
App
Temp
°C
Dew
Point
Rel
Hum
%
Delta-T
°C
Wind Press
QNH
hPa
Press
MSL
hPa
Rain
since 9 am
mm
Dir
 
Spd
km/h
Gust
km/h
Spd
kts
Gust
kts
27/11:30pm - - - - - NW 13 15 7 8 1008.7 - -
27/11:00pm - - - - - WNW 11 11 6 6 1008.9 1008.7 -
27/10:30pm - - - - - WNW 13 15 7 8 1008.7 - -
27/10:00pm - - - - - WNW 11 13 6 7 1008.8 1008.6 -
27/09:30pm - - - - - W 7 9 4 5 1009.2 - -
27/09:00pm - - - - - W 7 9 4 5 1008.9 1008.9 -
27/08:30pm - - - - - W 9 11 5 6 1008.8 - -
27/08:00pm - - - - - W 9 13 5 7 1008.7 1008.7 -
27/07:30pm - - - - - WSW 13 15 7 8 1008.3 - -
27/07:00pm - - - - - SW 11 13 6 7 1008.1 1008.0 -
27/06:30pm - - - - - SW 9 11 5 6 1007.8 - -
27/06:00pm - - - - - SSW 9 9 5 5 1007.5 1007.4 -
27/05:30pm - - - - - SW 7 9 4 5 1007.2 - -
27/05:00pm - - - - - SSW 9 11 5 6 1006.9 1006.9 -
27/04:30pm - - - - - S 7 7 4 4 1006.8 - -
27/04:00pm - - - - - S 6 7 3 4 1006.8 1006.6 -
27/03:30pm - - - - - S 7 11 4 6 1007.1 - -
27/03:00pm - - - - - S 7 13 4 7 1007.1 1006.9 -
27/02:30pm - - - - - SSE 11 13 6 7 1007.3 - -
27/02:00pm - - - - - SE 15 20 8 11 1007.7 1007.4 -
27/01:30pm - - - - - SE 20 22 11 12 1008.2 - -
27/01:00pm - - - - - SE 22 26 12 14 1008.5 1008.3 -
27/12:30pm - - - - - SE 28 32 15 17 1008.6 - -
27/12:00pm - - - - - SSE 20 26 11 14 1009.0 1008.8 -
27/11:30am - - - - - SSE 19 20 10 11 1009.5 - -
27/11:00am - - - - - SSE 19 22 10 12 1009.9 1009.7 -
27/10:30am - - - - - SSE 19 26 10 14 1009.8 - -
27/10:00am - - - - - S 20 24 11 13 1009.6 1009.6 -
27/09:30am - - - - - S 17 20 9 11 1009.4 - -
27/09:00am - - - - - S 19 26 10 14 1009.5 1009.5 -
27/08:30am - - - - - S 19 26 10 14 1009.6 - -
27/08:00am - - - - - S 19 26 10 14 1009.3 1009.2 -
27/07:30am - - - - - S 26 32 14 17 1009.0 - -
27/07:00am - - - - - S 22 32 12 17 1008.9 1008.7 -
27/06:30am - - - - - S 26 32 14 17 1008.7 - -
27/06:00am - - - - - S 22 35 12 19 1008.6 1008.6 -
27/05:30am - - - - - S 24 32 13 17 1008.3 - -
27/05:00am - - - - - S 26 33 14 18 1007.9 1008.0 -
27/04:30am - - - - - S 28 33 15 18 1007.7 - -
27/04:00am - - - - - S 30 30 16 16 1007.7 1007.5 -
27/03:30am - - - - - SSW 32 37 17 20 1007.2 - -
27/03:00am - - - - - SSW 33 39 18 21 1006.7 1006.7 -
27/02:30am - - - - - SW 33 37 18 20 1006.5 - -
27/02:00am - - - - - WSW 28 32 15 17 1006.3 1006.2 -
27/01:30am - - - - - WSW 26 30 14 16 1006.3 - -
27/01:00am - - - - - WSW 24 30 13 16 1006.3 1006.2 -
27/12:30am - - - - - WSW 26 30 14 16 1006.3 - -
27/12:00am - - - - - WSW 26 28 14 15 1006.4 1006.0 -
 
Date/Time
WST
Temp
°C
App
Temp
°C
Dew
Point
Rel
Hum
%
Delta-T
°C
Wind Press
QNH
hPa
Press
MSL
hPa
Rain
since 9 am
mm
Dir
 
Spd
km/h
Gust
km/h
Spd
kts
Gust
kts
26/11:30pm - - - - - W 24 28 13 15 1006.6 - -
26/11:00pm - - - - - W 22 24 12 13 1006.9 1006.7 -
26/10:30pm - - - - - W 19 20 10 11 1006.9 - -
26/10:00pm - - - - - W 17 19 9 10 1006.9 1006.8 -
26/09:30pm - - - - - W 15 17 8 9 1006.9 - -
26/09:00pm - - - - - W 13 13 7 7 1006.9 1006.8 -
26/08:30pm - - - - - WNW 11 11 6 6 1006.7 - -
26/08:00pm - - - - - W 7 9 4 5 1006.6 1006.6 -
26/07:30pm - - - - - W 11 13 6 7 1006.2 - -
26/07:00pm - - - - - W 13 15 7 8 1005.8 1005.8 -
26/06:30pm - - - - - WNW 13 15 7 8 1005.7 - -
26/06:00pm - - - - - WNW 11 13 6 7 1005.6 1005.5 -
26/05:30pm - - - - - NNW 9 13 5 7 1005.6 - -
26/05:00pm - - - - - N 7 11 4 6 1005.5 1005.4 -

Other Formats:

Comma delimited format used in spreadsheet applications
http://www.bom.gov.au/fwo/IDW60801/IDW60801.94207.axf

JavaScript Object Notation format (JSON) in row-major order
http://www.bom.gov.au/fwo/IDW60801/IDW60801.94207.json